createdAt,value
2022-12-16T06:02:47.017Z,2.60
2022-12-16T06:08:09.931Z,2.72
2022-12-16T06:13:31.294Z,3.87
2022-12-16T06:18:53.350Z,3.62
2022-12-16T06:24:14.457Z,3.00
2022-12-16T06:29:35.648Z,7.87
2022-12-16T06:34:57.942Z,3.50
2022-12-16T06:40:19.004Z,5.12
2022-12-16T06:45:40.493Z,3.05
2022-12-16T06:51:03.281Z,2.72
2022-12-16T06:56:25.143Z,2.25
2022-12-16T07:01:55.198Z,6.00
2022-12-16T07:07:17.792Z,3.85
2022-12-16T07:12:38.956Z,4.60
2022-12-16T07:18:00.096Z,3.03
2022-12-16T07:23:22.352Z,4.10
2022-12-16T07:28:43.786Z,6.25
2022-12-16T07:34:04.920Z,3.67
2022-12-16T07:39:27.526Z,3.83
2022-12-16T07:44:48.796Z,8.75
2022-12-16T07:50:09.935Z,2.15
2022-12-16T07:55:32.621Z,3.00
2022-12-16T08:00:53.959Z,3.47
2022-12-16T08:06:16.914Z,3.00
2022-12-16T08:11:39.370Z,3.83
2022-12-16T08:17:12.389Z,5.80
2022-12-16T08:22:33.883Z,5.35
2022-12-16T08:27:55.992Z,8.40
2022-12-16T08:33:19.525Z,6.03
2022-12-16T08:38:49.520Z,6.12
2022-12-16T08:44:14.531Z,8.65
2022-12-16T08:49:35.648Z,4.80
2022-12-16T08:54:56.904Z,6.22
2022-12-16T09:00:19.343Z,4.40
2022-12-16T09:05:40.452Z,5.20
2022-12-16T09:11:01.683Z,7.97
2022-12-16T09:16:24.894Z,6.47
2022-12-16T09:21:45.935Z,7.55
2022-12-16T09:27:07.184Z,8.00
2022-12-16T09:32:29.784Z,5.30
2022-12-16T09:37:50.911Z,9.02
2022-12-16T09:43:19.118Z,9.70
2022-12-16T09:48:52.213Z,6.60
2022-12-16T09:54:23.984Z,8.27
2022-12-16T09:59:51.014Z,10.80
2022-12-16T10:05:13.512Z,10.30
2022-12-16T10:10:41.301Z,6.65
2022-12-16T10:16:08.281Z,9.38
2022-12-16T10:21:37.476Z,5.78
2022-12-16T10:27:08.678Z,6.12
2022-12-16T10:32:36.701Z,6.28
2022-12-16T10:38:00.866Z,3.45
2022-12-16T10:43:30.137Z,4.32
2022-12-16T10:48:56.607Z,6.93
2022-12-16T10:54:39.042Z,5.82
2022-12-16T11:00:00.200Z,7.47
2022-12-16T11:05:39.061Z,6.05
2022-12-16T11:11:02.635Z,3.58
2022-12-16T11:16:33.472Z,3.80
2022-12-16T11:21:54.723Z,4.43
2022-12-16T11:27:18.646Z,5.70
2022-12-16T11:32:43.801Z,1.83
2022-12-16T11:38:07.686Z,2.62
2022-12-16T11:43:33.701Z,3.87
2022-12-16T11:54:22.657Z,7.60
2022-12-16T11:59:51.283Z,5.00
2022-12-16T12:05:12.422Z,2.65
2022-12-16T12:10:53.918Z,4.25
2022-12-16T12:16:29.032Z,1.10
2022-12-16T12:21:58.362Z,1.30
2022-12-16T12:27:26.423Z,4.82
2022-12-16T12:32:57.835Z,5.18
2022-12-16T12:38:24.901Z,2.67
2022-12-16T12:43:57.456Z,2.50
2022-12-16T12:49:28.719Z,2.47
2022-12-16T12:54:56.515Z,2.22
2022-12-16T13:00:21.958Z,0.85
2022-12-16T13:05:53.435Z,3.35
2022-12-16T13:11:34.982Z,2.05
2022-12-16T13:17:25.838Z,1.83
2022-12-16T13:22:50.946Z,1.48
2022-12-16T13:33:49.323Z,0.80
2022-12-16T13:45:17.737Z,1.37
2022-12-16T13:50:59.577Z,1.58
2022-12-16T13:56:23.152Z,0.50
2022-12-16T14:01:52.768Z,1.50
2022-12-16T14:07:24.454Z,0.62
2022-12-16T14:13:08.845Z,1.83
2022-12-16T14:18:43.906Z,1.12
2022-12-16T14:24:11.965Z,0.80
2022-12-16T14:29:39.953Z,1.92
2022-12-16T14:35:02.470Z,1.92
2022-12-16T14:40:45.922Z,3.22
2022-12-16T14:46:08.269Z,0.90
2022-12-16T14:51:42.256Z,1.67
2022-12-16T14:57:03.564Z,2.58
2022-12-16T15:02:37.336Z,5.80
2022-12-16T15:08:00.119Z,0.47
2022-12-16T15:13:21.209Z,0.50
2022-12-16T15:18:46.094Z,1.67
2022-12-16T15:24:09.496Z,2.10
2022-12-16T15:29:47.239Z,2.72
2022-12-16T15:35:08.339Z,1.00
2022-12-16T15:40:43.796Z,1.55
2022-12-16T15:46:07.916Z,0.70
2022-12-16T15:51:47.503Z,0.60
2022-12-16T15:57:09.842Z,0.55
2022-12-16T16:02:36.001Z,1.15
2022-12-16T16:08:02.028Z,1.77
2022-12-16T16:13:26.488Z,1.95
2022-12-16T16:18:47.592Z,4.28
2022-12-16T16:24:08.944Z,4.00
2022-12-16T16:29:31.311Z,1.42
2022-12-16T16:34:58.048Z,1.40
2022-12-16T16:40:19.331Z,1.83
2022-12-16T16:45:42.031Z,4.03
2022-12-16T16:51:03.213Z,4.93
2022-12-16T16:56:24.901Z,6.22
2022-12-16T17:01:47.334Z,2.90
2022-12-16T17:07:08.495Z,3.15
2022-12-16T17:12:38.164Z,3.95
2022-12-16T17:18:00.688Z,2.95
2022-12-16T17:23:22.400Z,1.35
2022-12-16T17:28:43.752Z,4.07
2022-12-16T17:34:06.276Z,2.60
2022-12-16T17:39:29.532Z,3.42
2022-12-16T17:44:51.182Z,7.43
2022-12-16T17:50:13.840Z,3.47
2022-12-16T17:55:34.810Z,2.55
2022-12-16T18:00:56.176Z,2.08
2022-12-16T18:06:18.426Z,6.85
2022-12-16T18:11:39.652Z,3.87
2022-12-16T18:17:00.901Z,3.87
2022-12-16T18:22:23.085Z,5.57
2022-12-16T18:27:44.428Z,7.75
2022-12-16T18:33:05.662Z,3.83
2022-12-16T18:38:28.100Z,6.10
2022-12-16T18:43:49.231Z,4.37
2022-12-16T18:49:10.569Z,9.20
2022-12-16T18:54:33.290Z,6.75
2022-12-16T18:59:54.374Z,5.68
2022-12-16T19:05:17.768Z,6.75
2022-12-16T19:10:39.981Z,11.25
2022-12-16T19:16:01.364Z,12.40
2022-12-16T19:21:22.785Z,20.85
2022-12-16T19:26:45.332Z,10.27
2022-12-16T19:32:06.658Z,19.00
2022-12-16T19:37:27.847Z,15.63
2022-12-16T19:42:50.416Z,16.92
2022-12-16T19:48:19.079Z,21.00
2022-12-16T19:53:40.362Z,13.57
2022-12-16T19:59:03.129Z,20.10
2022-12-16T20:04:24.421Z,12.65
2022-12-16T20:09:45.541Z,13.20
2022-12-16T20:15:08.182Z,19.55
2022-12-16T20:20:29.637Z,14.10
2022-12-16T20:25:51.791Z,18.45
2022-12-16T20:31:18.825Z,17.15
2022-12-16T20:36:40.064Z,18.62
2022-12-16T20:42:01.028Z,17.10
2022-12-16T20:47:23.788Z,13.13
2022-12-16T20:52:45.043Z,19.45
2022-12-16T20:58:06.243Z,17.10
2022-12-16T21:03:28.683Z,21.27
2022-12-16T21:08:49.753Z,26.85
2022-12-16T21:14:10.342Z,21.65
2022-12-16T21:19:33.872Z,19.17
2022-12-16T21:24:55.167Z,26.60
2022-12-16T21:30:17.413Z,20.20
2022-12-16T21:35:39.744Z,26.45
2022-12-16T21:41:00.941Z,29.17
2022-12-16T21:46:22.108Z,20.98
2022-12-16T21:51:44.614Z,25.40
2022-12-16T21:57:05.971Z,25.12
2022-12-16T22:02:31.067Z,25.62
2022-12-16T22:07:53.434Z,30.67
2022-12-16T22:13:18.058Z,30.92
2022-12-16T22:18:39.310Z,25.60
2022-12-16T22:24:02.273Z,26.55
2022-12-16T22:29:23.513Z,23.98
2022-12-16T22:34:44.802Z,29.90
2022-12-16T22:40:07.256Z,24.85
2022-12-16T22:45:28.760Z,29.15
2022-12-16T22:50:50.967Z,27.02
2022-12-16T22:56:15.308Z,33.53
2022-12-16T23:01:36.808Z,29.80
2022-12-16T23:06:58.122Z,29.10
2022-12-16T23:12:20.446Z,34.83
2022-12-16T23:17:41.636Z,25.15
2022-12-16T23:23:03.095Z,30.15
2022-12-16T23:28:25.362Z,34.17
